DCA weather

Ronald Reagan Washington National Airport
Washington, District of Columbia, United States

Public forecast

Using degrees Fahrenheit for public forecast. Weather courtesy of forecast.io.

Current aviation weather report (METAR) for Ronald Reagan Washington National Airport

Retrieved 2019/10/23 00:55 UTC (6 minutes ago):

KDCA 230055Z 31003KT 10SM SCT008 BKN070 16/14 A2985 RMK AO2 T01610144

Aviation forecast (TAF) for Ronald Reagan Washington National Airport

Retrieved 2019-10-23 00:39 UTC (22 minutes ago):

TAF KDCA 222336Z 2300/2406 32007KT P6SM SCT010 BKN060 FM230500 30006KT P6SM SCT150 FM231600 29011G17KT P6SM SKC FM240100 VRB03KT P6SM SKC